createdAt,value
2023-01-17T00:02:17.477Z,-4.50
2023-01-17T00:05:03.623Z,-4.51
2023-01-17T00:11:09.949Z,-4.58
2023-01-17T00:13:36.822Z,-4.53
2023-01-17T00:16:03.884Z,-4.51
2023-01-17T00:18:30.832Z,-4.50
2023-01-17T00:21:17.988Z,-4.49
2023-01-17T00:24:03.691Z,-4.52
2023-01-17T00:26:31.594Z,-4.52
2023-01-17T00:28:58.411Z,-4.48
2023-01-17T00:31:25.372Z,-4.46
2023-01-17T00:33:52.332Z,-4.47
2023-01-17T00:36:19.193Z,-4.48
2023-01-17T00:38:46.017Z,-4.45
2023-01-17T00:41:14.680Z,-4.49
2023-01-17T00:44:00.578Z,-4.45
2023-01-17T00:46:46.343Z,-4.41
2023-01-17T00:49:31.768Z,-4.40
2023-01-17T00:52:17.401Z,-4.41
2023-01-17T00:55:03.217Z,-4.40
2023-01-17T00:57:49.359Z,-4.39
2023-01-17T01:00:37.529Z,-4.33
2023-01-17T01:03:30.319Z,-4.29
2023-01-17T01:06:16.061Z,-4.33
2023-01-17T01:09:01.393Z,-4.33
2023-01-17T01:11:46.987Z,-4.32
2023-01-17T01:14:32.440Z,-4.29
2023-01-17T01:17:18.036Z,-4.24
2023-01-17T01:20:03.761Z,-4.22
2023-01-17T01:22:49.561Z,-4.20
2023-01-17T01:25:34.919Z,-4.25
2023-01-17T01:28:29.878Z,-4.23
2023-01-17T01:31:19.695Z,-4.21
2023-01-17T01:33:46.813Z,-4.21
2023-01-17T01:36:14.008Z,-4.13
2023-01-17T01:38:40.886Z,-4.15
2023-01-17T01:41:07.945Z,-4.21
2023-01-17T01:43:48.449Z,-4.20
2023-01-17T01:46:21.066Z,-4.25
2023-01-17T01:49:00.836Z,-4.26
2023-01-17T01:51:39.201Z,-4.24
2023-01-17T01:54:16.912Z,-4.20
2023-01-17T01:56:44.740Z,-4.17
2023-01-17T01:59:13.357Z,-4.21
2023-01-17T02:01:40.443Z,-4.23
2023-01-17T02:04:10.198Z,-4.10
2023-01-17T02:06:40.760Z,-4.09
2023-01-17T02:09:09.515Z,-4.09
2023-01-17T02:11:37.672Z,-4.11
2023-01-17T02:14:05.188Z,-4.11
2023-01-17T02:16:34.203Z,-4.06
2023-01-17T02:19:42.716Z,-4.03
2023-01-17T02:22:21.475Z,-4.05
2023-01-17T02:25:05.427Z,-4.03
2023-01-17T02:27:55.152Z,-4.03
2023-01-17T02:30:50.992Z,-3.98
2023-01-17T02:33:39.203Z,-4.03
2023-01-17T02:36:13.956Z,-4.06
2023-01-17T02:38:46.777Z,-4.07
2023-01-17T02:41:38.166Z,-4.07
2023-01-17T02:44:05.764Z,-4.03
2023-01-17T02:46:32.799Z,-4.02
2023-01-17T02:49:00.656Z,-3.98
2023-01-17T02:51:59.562Z,-4.00
2023-01-17T02:54:27.744Z,-3.97
2023-01-17T02:57:12.752Z,-3.99
2023-01-17T03:00:04.731Z,-3.90
2023-01-17T03:02:47.352Z,-3.96
2023-01-17T03:05:20.439Z,-3.92
2023-01-17T03:07:48.462Z,-3.92
2023-01-17T03:10:16.915Z,-3.90
2023-01-17T03:12:44.130Z,-3.87
2023-01-17T03:15:13.017Z,-3.88
2023-01-17T03:17:43.225Z,-3.92
2023-01-17T03:20:10.834Z,-3.96
2023-01-17T03:22:37.833Z,-3.94
2023-01-17T03:25:05.968Z,-3.99
2023-01-17T03:27:33.740Z,-3.97
2023-01-17T03:30:01.915Z,-3.98
2023-01-17T03:32:30.624Z,-3.97
2023-01-17T03:34:57.676Z,-3.91
2023-01-17T03:37:24.807Z,-3.87
2023-01-17T03:39:51.749Z,-3.87
2023-01-17T03:42:18.934Z,-3.84
2023-01-17T03:44:51.021Z,-3.84
2023-01-17T03:47:18.078Z,-3.88
2023-01-17T03:49:45.035Z,-3.95
2023-01-17T03:52:12.105Z,-3.90
2023-01-17T03:54:39.021Z,-3.90
2023-01-17T03:57:06.054Z,-3.96
2023-01-17T03:59:34.113Z,-3.87
2023-01-17T04:02:01.704Z,-3.89
2023-01-17T04:04:28.863Z,-3.86
2023-01-17T04:06:57.471Z,-3.87
2023-01-17T04:09:24.395Z,-3.85
2023-01-17T04:11:53.425Z,-3.78
2023-01-17T04:14:21.501Z,-3.78
2023-01-17T04:16:48.507Z,-3.76
2023-01-17T04:19:15.450Z,-3.75
2023-01-17T04:21:42.538Z,-3.72
2023-01-17T04:24:09.493Z,-3.75
2023-01-17T04:26:36.776Z,-3.71
2023-01-17T04:29:04.240Z,-3.66
2023-01-17T04:31:31.665Z,-3.64
2023-01-17T04:33:58.905Z,-3.76
2023-01-17T04:36:26.052Z,-3.65
2023-01-17T04:38:53.030Z,-3.67
2023-01-17T04:41:20.172Z,-3.63
2023-01-17T04:43:47.187Z,-3.68
2023-01-17T04:46:14.386Z,-3.65
2023-01-17T04:48:41.445Z,-3.68
2023-01-17T04:51:08.597Z,-3.64
2023-01-17T04:53:40.622Z,-3.64
2023-01-17T04:56:07.937Z,-3.64
2023-01-17T04:58:34.935Z,-3.58
2023-01-17T05:01:07.150Z,-3.60
2023-01-17T05:03:48.524Z,-3.65
2023-01-17T05:06:17.885Z,-3.74
2023-01-17T05:08:44.891Z,-3.72
2023-01-17T05:11:11.908Z,-3.65
2023-01-17T05:13:41.160Z,-3.65
2023-01-17T05:16:08.447Z,-3.64
2023-01-17T05:18:35.739Z,-3.57
2023-01-17T05:21:05.853Z,-3.55
2023-01-17T05:23:33.184Z,-3.55
2023-01-17T05:26:00.419Z,-3.57
2023-01-17T05:28:27.665Z,-3.57
2023-01-17T05:30:54.629Z,-3.62
2023-01-17T05:33:22.710Z,-3.54
2023-01-17T05:35:49.744Z,-3.61
2023-01-17T05:38:17.112Z,-3.59
2023-01-17T05:40:44.074Z,-3.54
2023-01-17T05:43:11.241Z,-3.52
2023-01-17T05:45:38.245Z,-3.47
2023-01-17T05:48:05.524Z,-3.49
2023-01-17T05:50:37.089Z,-3.48
2023-01-17T05:53:09.070Z,-3.51
2023-01-17T05:55:36.980Z,-3.49
2023-01-17T05:58:04.462Z,-3.43
2023-01-17T06:00:32.020Z,-3.44
2023-01-17T06:03:01.119Z,-3.46
2023-01-17T06:05:31.272Z,-3.45
2023-01-17T06:08:00.501Z,-3.42
2023-01-17T06:10:27.552Z,-3.44
2023-01-17T06:13:06.889Z,-3.38
2023-01-17T06:15:35.803Z,-3.42
2023-01-17T06:18:06.975Z,-3.41
2023-01-17T06:20:35.407Z,-3.37
2023-01-17T06:23:11.666Z,-3.34
2023-01-17T06:25:38.716Z,-3.31
2023-01-17T06:28:07.286Z,-3.33
2023-01-17T06:30:40.739Z,-3.29
2023-01-17T06:33:07.708Z,-3.37
2023-01-17T06:35:34.683Z,-3.27
2023-01-17T06:38:01.777Z,-3.26
2023-01-17T06:40:32.378Z,-3.15
2023-01-17T06:43:01.767Z,-3.13
2023-01-17T06:45:30.023Z,-3.11
2023-01-17T06:47:59.296Z,-3.13
2023-01-17T06:50:26.689Z,-3.06
2023-01-17T06:52:59.881Z,-3.05
2023-01-17T06:55:30.558Z,-3.03
2023-01-17T06:57:59.642Z,-3.04
2023-01-17T07:00:27.699Z,-2.99
2023-01-17T07:02:54.754Z,-3.02
2023-01-17T07:05:22.056Z,-2.98
2023-01-17T07:07:52.070Z,-3.01
2023-01-17T07:10:19.035Z,-3.03
2023-01-17T07:12:46.550Z,-3.05
2023-01-17T07:15:16.425Z,-2.93
2023-01-17T07:17:43.333Z,-2.87
2023-01-17T07:20:10.739Z,-2.87
2023-01-17T07:22:40.742Z,-2.83
2023-01-17T07:25:10.821Z,-2.81
2023-01-17T07:27:37.813Z,-2.72
2023-01-17T07:30:05.255Z,-2.73
2023-01-17T07:32:32.258Z,-2.68
2023-01-17T07:34:59.272Z,-2.69
2023-01-17T07:37:28.774Z,-2.73
2023-01-17T07:39:55.832Z,-2.70
2023-01-17T07:42:24.165Z,-2.64
2023-01-17T07:44:51.635Z,-2.62
2023-01-17T07:47:18.605Z,-2.66
2023-01-17T07:49:45.644Z,-2.58
2023-01-17T07:52:12.889Z,-2.54
2023-01-17T07:54:39.986Z,-2.54
2023-01-17T07:57:11.902Z,-2.47
2023-01-17T07:59:38.906Z,-2.46
2023-01-17T08:02:06.487Z,-2.43
2023-01-17T08:04:38.657Z,-2.45
2023-01-17T08:07:12.920Z,-2.42
2023-01-17T08:09:41.149Z,-2.40
2023-01-17T08:12:08.554Z,-2.38
2023-01-17T08:14:35.992Z,-2.32
2023-01-17T08:17:14.667Z,-2.30
2023-01-17T08:19:41.751Z,-2.31
2023-01-17T08:22:09.037Z,-2.25
2023-01-17T08:24:36.021Z,-2.20
2023-01-17T08:27:02.980Z,-2.16
2023-01-17T08:29:30.192Z,-2.08
2023-01-17T08:31:57.310Z,-2.09
2023-01-17T08:34:24.480Z,-2.04
2023-01-17T08:36:53.002Z,-2.00
2023-01-17T08:39:20.794Z,-2.00
2023-01-17T08:41:47.727Z,-1.96
2023-01-17T08:44:15.954Z,-1.99
2023-01-17T08:46:44.373Z,-1.87
2023-01-17T08:49:12.926Z,-1.87
2023-01-17T08:51:40.349Z,-1.80
2023-01-17T08:54:15.615Z,-1.76
2023-01-17T08:56:47.054Z,-1.73
2023-01-17T08:59:14.196Z,-1.78
2023-01-17T09:01:42.084Z,-1.75
2023-01-17T09:04:09.745Z,-1.66
2023-01-17T09:06:40.836Z,-1.58
2023-01-17T09:09:08.890Z,-1.61
2023-01-17T09:11:38.244Z,-1.57
2023-01-17T09:14:05.294Z,-1.66
2023-01-17T09:16:32.710Z,-1.59
2023-01-17T09:18:59.760Z,-1.70
2023-01-17T09:21:27.038Z,-1.64
2023-01-17T09:23:58.350Z,-1.58
2023-01-17T09:26:28.213Z,-1.49
2023-01-17T09:28:55.854Z,-1.52
2023-01-17T09:31:24.072Z,-1.46
2023-01-17T09:33:52.005Z,-1.42
2023-01-17T09:36:19.108Z,-1.42
2023-01-17T09:38:46.751Z,-1.41
2023-01-17T09:41:29.579Z,-1.40
2023-01-17T09:44:05.718Z,-1.37
2023-01-17T09:46:38.180Z,-1.31
2023-01-17T09:49:14.522Z,-1.29
2023-01-17T09:51:44.988Z,-1.25
2023-01-17T09:54:25.639Z,-1.24
2023-01-17T09:57:09.369Z,-1.29
2023-01-17T09:59:45.631Z,-1.26
2023-01-17T10:02:19.177Z,-1.26
2023-01-17T10:05:18.484Z,-1.24
2023-01-17T10:08:07.355Z,-1.25
2023-01-17T10:10:43.074Z,-1.23
2023-01-17T10:13:13.149Z,-1.26
2023-01-17T10:15:52.598Z,-1.27
2023-01-17T10:18:38.405Z,-1.21
2023-01-17T10:21:17.221Z,-1.17
2023-01-17T10:23:53.741Z,-1.14
2023-01-17T10:26:29.833Z,-1.08
2023-01-17T10:29:01.909Z,-1.08
2023-01-17T10:31:34.187Z,-1.02
2023-01-17T10:34:09.273Z,-0.93
2023-01-17T10:36:40.611Z,-0.88
2023-01-17T10:39:26.881Z,-0.82
2023-01-17T10:42:07.092Z,-0.82
2023-01-17T10:44:58.352Z,-0.84
2023-01-17T10:47:27.975Z,-0.84
2023-01-17T10:49:58.694Z,-0.86
2023-01-17T10:52:47.244Z,-0.87
2023-01-17T10:55:24.484Z,-0.85
2023-01-17T10:57:53.453Z,-0.83
2023-01-17T11:00:51.552Z,-0.80
2023-01-17T11:03:27.983Z,-0.78
2023-01-17T11:06:23.901Z,-0.70
2023-01-17T11:09:02.172Z,-0.67
2023-01-17T11:11:34.620Z,-0.58
2023-01-17T11:14:06.664Z,-0.57
2023-01-17T11:16:39.651Z,-0.55
2023-01-17T11:19:22.054Z,-0.52
2023-01-17T11:22:14.155Z,-0.48
2023-01-17T11:24:52.679Z,-0.48
2023-01-17T11:27:34.156Z,-0.49
2023-01-17T11:30:21.348Z,-0.49
2023-01-17T11:32:56.956Z,-0.63
2023-01-17T11:35:38.282Z,-0.50
2023-01-17T11:38:07.338Z,-0.59
2023-01-17T11:40:41.632Z,-0.52
2023-01-17T11:43:15.724Z,-0.49
2023-01-17T11:45:47.135Z,-0.46
2023-01-17T11:48:31.116Z,-0.38
2023-01-17T11:50:59.625Z,-0.41
2023-01-17T11:53:35.353Z,-0.46
2023-01-17T11:56:08.927Z,-0.43
2023-01-17T11:58:41.903Z,-0.39
2023-01-17T12:01:27.963Z,-0.35
2023-01-17T12:04:25.521Z,-0.33
2023-01-17T12:07:31.806Z,-0.30
2023-01-17T12:10:25.773Z,-0.34
2023-01-17T12:13:32.932Z,-0.34
2023-01-17T12:16:53.825Z,-0.32
2023-01-17T12:19:41.432Z,-0.33
2023-01-17T12:22:38.136Z,-0.38
2023-01-17T12:25:24.392Z,-0.35
2023-01-17T12:28:16.776Z,-0.30
2023-01-17T12:31:06.727Z,-0.27
2023-01-17T12:33:51.619Z,-0.23
2023-01-17T12:36:24.214Z,-0.23
2023-01-17T12:38:57.670Z,-0.24
2023-01-17T12:41:31.169Z,-0.24
2023-01-17T12:44:00.213Z,-0.24
2023-01-17T12:46:31.108Z,-0.17
2023-01-17T12:49:24.996Z,-0.18
2023-01-17T12:51:58.336Z,-0.22
2023-01-17T12:54:46.338Z,-0.18
2023-01-17T12:57:25.148Z,-0.23
2023-01-17T13:00:07.321Z,-0.23
2023-01-17T13:03:10.292Z,-0.23
2023-01-17T13:05:48.116Z,-0.24
2023-01-17T13:08:25.154Z,-0.22
2023-01-17T13:11:19.225Z,-0.15
2023-01-17T13:13:47.732Z,-0.28
2023-01-17T13:16:47.607Z,-0.21
2023-01-17T13:19:29.895Z,-0.17
2023-01-17T13:22:01.345Z,-0.13
2023-01-17T13:24:33.357Z,-0.17
2023-01-17T13:27:09.205Z,-0.19
2023-01-17T13:30:04.011Z,-0.24
2023-01-17T13:32:54.676Z,-0.27
2023-01-17T13:35:43.761Z,-0.32
2023-01-17T13:38:21.923Z,-0.33
2023-01-17T13:41:01.699Z,-0.34
2023-01-17T13:43:41.349Z,-0.36
2023-01-17T13:46:11.305Z,-0.39
2023-01-17T13:48:40.874Z,-0.40
2023-01-17T13:51:11.762Z,-0.36
2023-01-17T13:53:40.589Z,-0.38
2023-01-17T13:56:19.867Z,-0.40
2023-01-17T13:58:59.474Z,-0.45
2023-01-17T14:01:35.026Z,-0.50
2023-01-17T14:04:06.234Z,-0.51
2023-01-17T14:06:36.448Z,-0.52
2023-01-17T14:09:20.130Z,-0.51
2023-01-17T14:12:00.898Z,-0.55
2023-01-17T14:15:14.037Z,-0.54
2023-01-17T14:17:49.634Z,-0.56
2023-01-17T14:20:17.667Z,-0.59
2023-01-17T14:22:53.783Z,-0.63
2023-01-17T14:25:31.437Z,-0.64
2023-01-17T14:28:04.217Z,-0.61
2023-01-17T14:30:36.768Z,-0.58
2023-01-17T14:33:11.213Z,-0.62
2023-01-17T14:35:43.609Z,-0.64
2023-01-17T14:38:29.779Z,-0.71
2023-01-17T14:41:11.953Z,-0.74
2023-01-17T14:43:41.984Z,-0.83
2023-01-17T14:46:16.772Z,-0.73
2023-01-17T14:48:46.478Z,-0.76
2023-01-17T14:51:22.350Z,-0.83
2023-01-17T14:53:58.559Z,-0.74
2023-01-17T14:56:27.408Z,-0.69
2023-01-17T15:02:15.469Z,-0.59
2023-01-17T15:04:54.007Z,-0.48
2023-01-17T15:07:21.129Z,-0.54
2023-01-17T15:09:49.065Z,-0.40
2023-01-17T15:12:18.137Z,-0.40
2023-01-17T15:14:46.782Z,-0.46
2023-01-17T15:17:25.002Z,-0.35
2023-01-17T15:20:01.662Z,-0.33
2023-01-17T15:22:30.724Z,-0.46
2023-01-17T15:24:58.704Z,-0.39
2023-01-17T15:27:26.416Z,-0.44
2023-01-17T15:29:54.449Z,-0.41
2023-01-17T15:32:24.663Z,-0.49
2023-01-17T15:34:52.181Z,-0.53
2023-01-17T15:37:22.461Z,-0.55
2023-01-17T15:39:50.156Z,-0.57
2023-01-17T15:42:27.955Z,-0.53
2023-01-17T15:47:39.715Z,-0.58
2023-01-17T15:50:26.692Z,-0.53
2023-01-17T15:53:05.027Z,-0.54
2023-01-17T15:55:36.048Z,-0.48
2023-01-17T15:58:04.113Z,-0.46
2023-01-17T16:00:39.390Z,-0.44
2023-01-17T16:03:31.379Z,-0.45
2023-01-17T16:06:00.473Z,-0.44
2023-01-17T16:08:28.741Z,-0.42
2023-01-17T16:11:02.254Z,-0.49
2023-01-17T16:13:38.738Z,-0.50
2023-01-17T16:16:23.051Z,-0.41
2023-01-17T16:18:58.252Z,-0.59
2023-01-17T16:24:11.336Z,-0.55
2023-01-17T16:26:38.310Z,-0.52
2023-01-17T16:29:05.261Z,-0.51
2023-01-17T16:31:33.829Z,-0.51
2023-01-17T16:34:01.550Z,-0.57
2023-01-17T16:36:28.954Z,-0.61
2023-01-17T16:38:55.975Z,-0.71
2023-01-17T16:41:25.988Z,-0.63
2023-01-17T16:43:58.858Z,-0.65
2023-01-17T16:46:28.819Z,-0.74
2023-01-17T16:48:56.169Z,-0.75
2023-01-17T16:51:25.269Z,-0.79
2023-01-17T16:53:58.622Z,-0.75
2023-01-17T16:56:26.036Z,-0.85
2023-01-17T16:58:54.683Z,-0.81
2023-01-17T17:01:25.626Z,-0.85
2023-01-17T17:03:53.682Z,-0.85
2023-01-17T17:06:22.089Z,-0.93
2023-01-17T17:08:52.565Z,-0.91
2023-01-17T17:11:22.202Z,-0.90
2023-01-17T17:13:50.218Z,-0.89
2023-01-17T17:16:19.809Z,-0.89
2023-01-17T17:18:55.291Z,-0.95
2023-01-17T17:21:22.755Z,-0.95
2023-01-17T17:23:57.101Z,-0.96
2023-01-17T17:26:32.220Z,-0.99
2023-01-17T17:28:59.516Z,-0.96
2023-01-17T17:31:27.454Z,-0.99
2023-01-17T17:33:58.727Z,-0.99
2023-01-17T17:36:26.038Z,-1.02
2023-01-17T17:38:57.000Z,-1.02
2023-01-17T17:41:49.565Z,-0.96
2023-01-17T17:44:17.363Z,-1.04
2023-01-17T17:46:45.810Z,-1.01
2023-01-17T17:49:12.936Z,-1.00
2023-01-17T17:51:40.576Z,-0.97
2023-01-17T17:54:10.501Z,-0.95
2023-01-17T17:56:38.718Z,-0.97
2023-01-17T17:59:08.282Z,-0.98
2023-01-17T18:01:38.407Z,-0.94
2023-01-17T18:04:07.662Z,-0.96
2023-01-17T18:06:35.615Z,-1.00
2023-01-17T18:09:03.430Z,-1.00
2023-01-17T18:11:30.861Z,-1.04
2023-01-17T18:14:01.075Z,-1.13
2023-01-17T18:16:33.151Z,-1.00
2023-01-17T18:19:03.864Z,-0.98
2023-01-17T18:21:34.511Z,-0.92
2023-01-17T18:24:14.745Z,-0.96
2023-01-17T18:26:47.760Z,-0.95
2023-01-17T18:29:18.377Z,-0.95
2023-01-17T18:31:47.143Z,-0.97
2023-01-17T18:34:17.586Z,-0.95
2023-01-17T18:36:53.074Z,-0.93
2023-01-17T18:39:24.892Z,-0.94
2023-01-17T18:41:54.168Z,-0.99
2023-01-17T18:44:22.552Z,-0.96
2023-01-17T18:46:54.131Z,-0.97
2023-01-17T18:49:21.707Z,-0.96
2023-01-17T18:51:51.474Z,-1.08
2023-01-17T18:54:19.945Z,-0.98
2023-01-17T18:56:47.185Z,-0.97
2023-01-17T18:59:16.197Z,-0.97
2023-01-17T19:01:43.971Z,-1.05
2023-01-17T19:04:16.159Z,-1.02
2023-01-17T19:06:46.169Z,-1.08
2023-01-17T19:09:14.583Z,-1.13
2023-01-17T19:11:44.600Z,-1.11
2023-01-17T19:14:12.859Z,-1.08
2023-01-17T19:16:41.779Z,-1.10
2023-01-17T19:19:12.065Z,-1.08
2023-01-17T19:21:39.730Z,-1.11
2023-01-17T19:24:07.699Z,-1.21
2023-01-17T19:26:35.112Z,-1.15
2023-01-17T19:29:05.393Z,-1.15
2023-01-17T19:31:37.373Z,-1.12
2023-01-17T19:34:04.812Z,-1.17
2023-01-17T19:36:34.621Z,-1.16
2023-01-17T19:39:05.389Z,-1.19
2023-01-17T19:41:35.171Z,-1.23
2023-01-17T19:44:07.761Z,-1.25
2023-01-17T19:46:35.831Z,-1.28
2023-01-17T19:49:04.369Z,-1.33
2023-01-17T19:51:31.494Z,-1.41
2023-01-17T19:54:02.978Z,-1.44
2023-01-17T19:56:30.530Z,-1.41
2023-01-17T19:59:01.384Z,-1.38
2023-01-17T20:01:31.394Z,-1.37
2023-01-17T20:03:59.262Z,-1.42
2023-01-17T20:06:29.200Z,-1.44
2023-01-17T20:08:57.031Z,-1.47
2023-01-17T20:11:25.464Z,-1.43
2023-01-17T20:13:56.459Z,-1.48
2023-01-17T20:16:25.109Z,-1.48
2023-01-17T20:18:52.751Z,-1.46
2023-01-17T20:21:22.311Z,-1.49
2023-01-17T20:23:54.053Z,-1.49
2023-01-17T20:26:23.635Z,-1.50
2023-01-17T20:28:51.796Z,-1.52
2023-01-17T20:31:25.312Z,-1.54
2023-01-17T20:33:56.576Z,-1.53
2023-01-17T20:36:25.448Z,-1.54
2023-01-17T20:38:54.543Z,-1.54
2023-01-17T20:41:49.157Z,-1.56
2023-01-17T20:44:16.716Z,-1.57
2023-01-17T20:46:43.965Z,-1.63
2023-01-17T20:49:16.875Z,-1.62
2023-01-17T20:51:45.808Z,-1.62
2023-01-17T20:54:14.771Z,-1.63
2023-01-17T20:56:42.541Z,-1.68
2023-01-17T20:59:14.653Z,-1.68
2023-01-17T21:01:46.154Z,-1.69
2023-01-17T21:04:15.129Z,-1.67
2023-01-17T21:06:43.803Z,-1.68
2023-01-17T21:09:38.025Z,-1.69
2023-01-17T21:12:08.484Z,-1.77
2023-01-17T21:14:37.731Z,-1.85
2023-01-17T21:17:04.881Z,-1.76
2023-01-17T21:19:36.752Z,-1.84
2023-01-17T21:22:05.627Z,-1.81
2023-01-17T21:24:32.681Z,-1.83
2023-01-17T21:27:00.685Z,-1.89
2023-01-17T21:29:29.357Z,-1.85
2023-01-17T21:31:56.570Z,-1.86
2023-01-17T21:34:27.724Z,-1.86
2023-01-17T21:36:54.924Z,-1.88
2023-01-17T21:39:21.917Z,-1.96
2023-01-17T21:41:50.881Z,-1.88
2023-01-17T21:44:22.334Z,-1.91
2023-01-17T21:46:53.626Z,-1.86
2023-01-17T21:49:22.921Z,-1.86
2023-01-17T21:51:52.905Z,-1.84
2023-01-17T21:54:40.611Z,-1.85
2023-01-17T21:57:26.629Z,-1.87
2023-01-17T21:59:53.671Z,-1.85
2023-01-17T22:02:20.921Z,-1.83
2023-01-17T22:04:48.119Z,-1.86
2023-01-17T22:07:15.069Z,-1.91
2023-01-17T22:09:42.091Z,-1.89
2023-01-17T22:12:09.148Z,-1.93
2023-01-17T22:14:37.574Z,-1.89
2023-01-17T22:17:04.492Z,-1.91
2023-01-17T22:19:31.390Z,-1.92
2023-01-17T22:21:58.580Z,-1.88
2023-01-17T22:24:25.482Z,-1.87
2023-01-17T22:26:52.450Z,-1.90
2023-01-17T22:29:19.439Z,-1.89
2023-01-17T22:31:46.452Z,-1.91
2023-01-17T22:34:14.144Z,-1.93
2023-01-17T22:36:41.843Z,-1.87
2023-01-17T22:39:09.968Z,-1.87
2023-01-17T22:41:38.355Z,-1.92
2023-01-17T22:44:05.614Z,-1.88
2023-01-17T22:46:35.592Z,-1.87
2023-01-17T22:49:03.027Z,-1.87
2023-01-17T22:51:30.213Z,-1.86
2023-01-17T22:53:59.145Z,-1.86
2023-01-17T22:56:31.914Z,-1.86
2023-01-17T22:59:00.890Z,-1.85
2023-01-17T23:01:32.963Z,-1.85
2023-01-17T23:04:02.757Z,-1.85
2023-01-17T23:06:38.368Z,-1.88
2023-01-17T23:09:08.380Z,-1.90
2023-01-17T23:11:41.173Z,-1.87
2023-01-17T23:14:17.025Z,-1.87
2023-01-17T23:17:14.940Z,-1.87
2023-01-17T23:19:42.853Z,-1.87
2023-01-17T23:22:19.471Z,-1.90
2023-01-17T23:24:53.585Z,-1.87
2023-01-17T23:27:53.409Z,-1.85
2023-01-17T23:30:34.697Z,-1.86
2023-01-17T23:33:10.123Z,-1.87
2023-01-17T23:35:42.114Z,-1.87
2023-01-17T23:38:29.808Z,-1.80
2023-01-17T23:41:20.406Z,-1.79
2023-01-17T23:43:55.215Z,-1.78
2023-01-17T23:46:22.689Z,-1.78
2023-01-17T23:48:49.913Z,-1.80
2023-01-17T23:51:16.995Z,-1.81
2023-01-17T23:53:46.842Z,-1.77
2023-01-17T23:56:19.062Z,-1.80
2023-01-17T23:58:46.119Z,-1.76
